Time;durP1;ratioP1;P1;durP2;ratioP2;P2;SDS_P1;SDS_P2;PMS_P1;PMS_P2;Temp;Humidity;BMP_temperature;BMP_pressure;BME280_temperature;BME280_humidity;BME280_pressure;Samples;Min_cycle;Max_cycle;Signal;HPM_P1;HPM_P2
2021/04/14 04:12:38;;;;;;;1.30;1.30;;;3.10;99.90;;;;;;4919091;29;20479;-77
2021/04/14 04:15:11;;;;;;;1.50;1.50;;;3.10;99.90;;;;;;4920363;29;20206;-77
2021/04/14 04:17:39;;;;;;;1.20;1.20;;;3.20;99.90;;;;;;4921375;29;20612;-79
2021/04/14 04:20:09;;;;;;;1.40;1.40;;;3.20;99.90;;;;;;4921562;29;20238;-80
2021/04/14 04:22:36;;;;;;;1.30;1.30;;;;;;;;;;4902788;29;20207;-79
2021/04/14 04:25:04;;;;;;;1.10;1.10;;;3.30;99.90;;;;;;4920340;23;20301;-77
2021/04/14 04:27:31;;;;;;;1.50;1.50;;;3.20;99.90;;;;;;4918553;29;20206;-76
2021/04/14 04:29:58;;;;;;;1.20;1.20;;;3.10;99.90;;;;;;4919674;29;20262;-77
2021/04/14 04:32:25;;;;;;;1.50;1.50;;;3.10;99.90;;;;;;4918776;29;20214;-76
2021/04/14 04:34:52;;;;;;;1.20;1.20;;;3.00;99.90;;;;;;4918313;29;20259;-77
2021/04/14 04:37:20;;;;;;;1.30;1.30;;;;;;;;;;4919644;29;20226;-77
2021/04/14 04:39:47;;;;;;;1.40;1.40;;;3.10;99.90;;;;;;4918408;29;20234;-77
2021/04/14 04:42:14;;;;;;;1.23;1.23;;;3.00;99.90;;;;;;4918321;29;20683;-77
2021/04/14 04:44:41;;;;;;;1.30;1.30;;;3.00;99.90;;;;;;4917867;29;20258;-77
2021/04/14 04:47:08;;;;;;;1.30;1.30;;;3.00;99.90;;;;;;4918358;29;20207;-77
2021/04/14 04:49:35;;;;;;;1.30;1.30;;;3.10;99.90;;;;;;4918258;29;20777;-78
2021/04/14 04:52:03;;;;;;;1.20;1.20;;;3.20;99.90;;;;;;4918458;29;20731;-77
2021/04/14 04:54:31;;;;;;;1.40;1.40;;;3.20;99.90;;;;;;4918129;29;20222;-77
2021/04/14 04:56:58;;;;;;;1.40;1.40;;;3.30;99.90;;;;;;4917704;29;20230;-76
2021/04/14 04:59:25;;;;;;;1.53;1.53;;;3.20;99.90;;;;;;4917987;29;20211;-75
2021/04/14 05:01:53;;;;;;;1.70;1.70;;;3.20;99.90;;;;;;4917919;29;20676;-77
2021/04/14 05:04:22;;;;;;;1.10;1.10;;;3.20;99.90;;;;;;4917806;29;20230;-76
2021/04/14 05:06:49;;;;;;;1.30;1.30;;;;;;;;;;4915562;29;20210;-76
2021/04/14 05:09:16;;;;;;;1.30;1.30;;;;;;;;;;4917394;29;20207;-77
2021/04/14 05:11:43;;;;;;;1.20;1.20;;;3.30;99.90;;;;;;4916581;29;20210;-77
2021/04/14 05:14:11;;;;;;;1.40;1.40;;;3.30;99.90;;;;;;4917051;29;20270;-77
2021/04/14 05:16:38;;;;;;;1.23;1.23;;;3.40;99.90;;;;;;4915486;29;20290;-77
2021/04/14 05:19:06;;;;;;;1.30;1.30;;;3.40;99.90;;;;;;4916690;29;20211;-76
2021/04/14 05:21:35;;;;;;;1.30;1.30;;;3.50;99.90;;;;;;4915675;29;20261;-76
2021/04/14 05:24:02;;;;;;;1.40;1.40;;;;;;;;;;4916775;29;20238;-75
2021/04/14 05:26:29;;;;;;;1.30;1.30;;;3.50;99.90;;;;;;4916108;29;20254;-76
2021/04/14 05:28:56;;;;;;;1.30;1.30;;;3.60;99.90;;;;;;4916678;29;20218;-76
2021/04/14 05:31:29;;;;;;;1.20;1.20;;;3.50;99.90;;;;;;4917119;29;20648;-76
2021/04/14 05:33:56;;;;;;;1.20;1.20;;;3.50;99.90;;;;;;4916909;29;20602;-75
2021/04/14 05:36:23;;;;;;;1.30;1.30;;;3.50;99.90;;;;;;4916770;29;20227;-76
2021/04/14 05:38:52;;;;;;;1.30;1.30;;;3.50;99.90;;;;;;4916947;29;20221;-75
2021/04/14 05:41:20;;;;;;;1.40;1.40;;;3.50;99.90;;;;;;4916827;29;20211;-76
2021/04/14 05:43:47;;;;;;;1.50;1.50;;;3.60;99.90;;;;;;4916827;29;20218;-76
2021/04/14 05:46:15;;;;;;;1.40;1.40;;;3.50;99.90;;;;;;4916527;29;20611;-76
2021/04/14 05:48:45;;;;;;;1.40;1.40;;;3.60;99.90;;;;;;4916561;29;20203;-76
2021/04/14 05:51:14;;;;;;;1.23;1.23;;;3.50;99.90;;;;;;4916647;29;20264;-76
2021/04/14 05:53:41;;;;;;;1.20;1.20;;;3.30;99.90;;;;;;4916251;29;20211;-76
2021/04/14 05:56:10;;;;;;;1.30;1.30;;;3.60;99.90;;;;;;4916051;29;20341;-76
2021/04/14 05:58:37;;;;;;;1.33;1.33;;;3.60;99.90;;;;;;4916244;29;20388;-75
2021/04/14 06:01:05;;;;;;;1.40;1.40;;;3.70;99.90;;;;;;4916508;29;20442;-75
2021/04/14 06:03:32;;;;;;;1.10;1.10;;;3.60;99.90;;;;;;4916408;29;20215;-76
2021/04/14 06:06:00;;;;;;;1.37;1.37;;;3.60;99.90;;;;;;4915996;29;20235;-76
2021/04/14 06:08:28;;;;;;;1.30;1.30;;;3.60;99.90;;;;;;4915893;29;20250;-76
2021/04/14 06:10:55;;;;;;;1.33;1.33;;;3.60;99.90;;;;;;4916065;29;20235;-76
2021/04/14 06:13:23;;;;;;;1.50;1.50;;;3.60;99.90;;;;;;4916032;29;20382;-75
2021/04/14 06:15:50;;;;;;;1.33;1.33;;;3.60;99.90;;;;;;4916059;29;20274;-75
2021/04/14 06:18:17;;;;;;;1.20;1.20;;;3.80;99.90;;;;;;4915912;29;20230;-76
2021/04/14 06:20:43;;;;;;;1.50;1.50;;;3.70;99.90;;;;;;4915976;29;20203;-75
2021/04/14 06:23:15;;;;;;;1.40;1.40;;;3.80;99.90;;;;;;4916272;29;20202;-75
2021/04/14 06:25:43;;;;;;;1.33;1.33;;;3.80;99.90;;;;;;4915649;29;20238;-75
2021/04/14 06:28:11;;;;;;;1.30;1.30;;;;;;;;;;4916020;29;20205;-75
2021/04/14 06:30:39;;;;;;;1.27;1.27;;;4.20;99.90;;;;;;4916242;29;20234;-75
2021/04/14 06:33:08;;;;;;;1.43;1.43;;;;;;;;;;4915165;29;20207;-75
2021/04/14 06:35:36;;;;;;;1.33;1.33;;;4.20;99.90;;;;;;4915708;29;20480;-75
2021/04/14 06:38:05;;;;;;;1.40;1.40;;;4.40;99.90;;;;;;4915809;29;20231;-75
2021/04/14 06:40:49;;;;;;;1.20;1.20;;;4.20;99.90;;;;;;4915753;29;20230;-76
2021/04/14 06:43:30;;;;;;;1.27;1.27;;;4.20;99.90;;;;;;4915567;29;20206;-76
2021/04/14 06:46:04;;;;;;;1.20;1.20;;;4.40;99.90;;;;;;4915413;29;20206;-76
2021/04/14 06:48:40;;;;;;;1.20;1.20;;;4.50;99.90;;;;;;4915463;29;20690;-75
2021/04/14 06:51:16;;;;;;;1.30;1.30;;;4.50;99.90;;;;;;4915619;29;20274;-75
2021/04/14 06:53:59;;;;;;;1.30;1.30;;;4.40;99.90;;;;;;4915331;29;20206;-75
2021/04/14 06:56:27;;;;;;;1.33;1.33;;;4.50;99.90;;;;;;4915033;29;20210;-75
2021/04/14 06:59:00;;;;;;;1.30;1.30;;;4.60;99.90;;;;;;4915482;29;20217;-76
2021/04/14 07:01:33;;;;;;;1.20;1.20;;;4.70;99.90;;;;;;4915383;29;20211;-76
2021/04/14 07:04:07;;;;;;;1.40;1.40;;;4.60;99.90;;;;;;4915254;29;20418;-75
2021/04/14 07:06:37;;;;;;;1.27;1.27;;;4.70;99.90;;;;;;4915110;29;20371;-76
2021/04/14 07:09:18;;;;;;;1.30;1.30;;;4.70;99.90;;;;;;4915182;29;20643;-76
2021/04/14 07:11:45;;;;;;;1.30;1.30;;;4.80;99.90;;;;;;4915216;29;20217;-76
2021/04/14 07:14:12;;;;;;;1.13;1.13;;;5.00;99.90;;;;;;4915106;29;20278;-75
2021/04/14 07:17:07;;;;;;;1.30;1.30;;;4.80;99.90;;;;;;4914694;29;20611;-76
2021/04/14 07:19:54;;;;;;;1.20;1.20;;;4.80;99.90;;;;;;4909292;29;20249;-75
2021/04/14 07:22:32;;;;;;;1.13;1.13;;;5.00;99.90;;;;;;4915368;29;20210;-75
2021/04/14 07:25:05;;;;;;;1.50;1.50;;;5.00;99.90;;;;;;4914824;29;20238;-75
2021/04/14 07:27:37;;;;;;;1.20;1.20;;;5.20;99.90;;;;;;4915032;29;20206;-75
2021/04/14 07:30:09;;;;;;;1.20;1.20;;;5.30;99.90;;;;;;4915163;29;20222;-75
2021/04/14 07:32:43;;;;;;;1.30;1.30;;;5.40;99.90;;;;;;4914931;29;20698;-75
2021/04/14 07:35:15;;;;;;;1.10;1.10;;;5.50;99.90;;;;;;4914774;29;20226;-75
2021/04/14 07:37:51;;;;;;;1.30;1.30;;;5.30;99.90;;;;;;4914871;29;20278;-75
2021/04/14 07:40:25;;;;;;;1.23;1.23;;;5.50;99.90;;;;;;4914887;29;20285;-75
2021/04/14 07:43:00;;;;;;;1.30;1.30;;;5.80;99.90;;;;;;4915093;29;20210;-75
2021/04/14 07:45:31;;;;;;;1.20;1.20;;;5.80;99.90;;;;;;4918570;29;20249;-76
2021/04/14 07:48:04;;;;;;;1.10;1.10;;;6.00;99.90;;;;;;4918771;29;20262;-76
2021/04/14 07:50:36;;;;;;;1.10;1.10;;;6.20;99.90;;;;;;4918631;29;20266;-76
2021/04/14 07:53:14;;;;;;;1.30;1.30;;;6.10;99.90;;;;;;4919359;29;20206;-76
2021/04/14 07:55:41;;;;;;;1.17;1.17;;;6.40;99.90;;;;;;4918447;29;20234;-76
2021/04/14 07:58:13;;;;;;;1.10;1.10;;;6.40;99.90;;;;;;4918771;29;20226;-76
2021/04/14 08:00:41;;;;;;;1.30;1.30;;;6.50;99.90;;;;;;4918451;29;20670;-76
2021/04/14 08:03:12;;;;;;;1.00;1.00;;;6.30;99.90;;;;;;4918301;29;20218;-76
2021/04/14 08:05:39;;;;;;;1.20;1.20;;;6.40;99.90;;;;;;4918153;29;20778;-75
2021/04/14 08:08:24;;;;;;;1.30;1.30;;;6.50;99.90;;;;;;4918573;29;20245;-75
2021/04/14 08:10:57;;;;;;;1.10;1.10;;;6.30;99.90;;;;;;4918769;29;20210;-75
2021/04/14 08:13:28;;;;;;;1.10;1.10;;;6.40;99.90;;;;;;4918532;29;20645;-76
2021/04/14 08:15:56;;;;;;;1.30;1.30;;;6.50;99.90;;;;;;4918535;29;20303;-76
2021/04/14 08:18:28;;;;;;;1.20;1.20;;;6.40;99.90;;;;;;4918154;29;20516;-76
2021/04/14 08:21:12;;;;;;;0.90;0.90;;;6.30;99.90;;;;;;4918127;29;20598;-76
2021/04/14 08:23:52;;;;;;;1.00;1.00;;;6.20;99.90;;;;;;4917760;29;20213;-76
2021/04/14 08:26:21;;;;;;;1.53;1.53;;;6.20;99.90;;;;;;4917780;29;20211;-76
2021/04/14 08:28:52;;;;;;;1.20;1.20;;;6.00;99.90;;;;;;4918152;29;20340;-76
2021/04/14 08:31:34;;;;;;;1.27;1.27;;;6.10;99.90;;;;;;4918045;29;20206;-76
2021/04/14 08:34:12;;;;;;;1.20;1.20;;;6.30;99.90;;;;;;4918110;29;20286;-75
2021/04/14 08:36:53;;;;;;;1.27;1.27;;;6.50;99.90;;;;;;4917596;29;20206;-75
2021/04/14 08:39:24;;;;;;;1.10;1.10;;;6.70;99.90;;;;;;4917829;29;20202;-75
2021/04/14 08:42:05;;;;;;;1.10;1.10;;;6.80;99.90;;;;;;4918179;29;20211;-75
2021/04/14 08:44:37;;;;;;;1.20;1.20;;;6.80;99.90;;;;;;4917637;29;20230;-75
2021/04/14 08:47:11;;;;;;;1.20;1.20;;;6.80;99.90;;;;;;4917698;29;20237;-75
2021/04/14 08:49:40;;;;;;;1.07;1.07;;;6.90;99.40;;;;;;4917521;29;20207;-75
2021/04/14 08:52:28;;;;;;;1.20;1.20;;;7.00;99.90;;;;;;4917614;29;20211;-76
2021/04/14 08:54:58;;;;;;;1.00;1.00;;;6.90;99.80;;;;;;4916471;29;20230;-76
2021/04/14 08:57:25;;;;;;;1.20;1.20;;;;;;;;;;4917334;29;20234;-75
2021/04/14 08:59:53;;;;;;;1.30;1.30;;;;;;;;;;4917460;29;20207;-76
2021/04/14 09:02:21;;;;;;;1.10;1.10;;;6.60;99.90;;;;;;4917606;29;20207;-74
2021/04/14 09:04:51;;;;;;;1.10;1.10;;;6.70;98.90;;;;;;4916918;29;20231;-76
2021/04/14 09:07:26;;;;;;;1.00;1.00;;;6.90;97.20;;;;;;4917443;29;20203;-75
2021/04/14 09:09:54;;;;;;;1.00;1.00;;;7.10;96.40;;;;;;4917202;29;20202;-75
2021/04/14 09:12:35;;;;;;;1.00;1.00;;;7.30;96.60;;;;;;4917530;29;20683;-75
2021/04/14 09:15:04;;;;;;;1.07;1.07;;;7.30;96.80;;;;;;4916960;29;20290;-75
2021/04/14 09:17:31;;;;;;;1.10;1.10;;;7.70;96.40;;;;;;4917100;29;20715;-75
2021/04/14 09:20:11;;;;;;;1.10;1.10;;;7.10;92.60;;;;;;4916935;29;20214;-75
2021/04/14 09:22:38;;;;;;;1.20;1.20;;;7.40;94.70;;;;;;4917212;29;20206;-75
2021/04/14 09:25:18;;;;;;;1.10;1.10;;;7.40;95.00;;;;;;4916707;29;20235;-75
2021/04/14 09:27:49;;;;;;;1.20;1.20;;;7.40;94.80;;;;;;4916955;29;20285;-75
2021/04/14 09:30:28;;;;;;;1.00;1.00;;;7.60;95.00;;;;;;4916920;29;20206;-76
2021/04/14 09:32:59;;;;;;;1.00;1.00;;;7.80;94.70;;;;;;4916684;29;20734;-75
2021/04/14 09:35:44;;;;;;;1.10;1.10;;;7.60;93.60;;;;;;4916516;29;20290;-75
2021/04/14 09:38:16;;;;;;;0.90;0.90;;;7.90;93.40;;;;;;4916689;29;20231;-75
2021/04/14 09:40:43;;;;;;;1.00;1.00;;;7.90;91.90;;;;;;4916592;29;20218;-75
2021/04/14 09:43:19;;;;;;;1.10;1.10;;;8.00;92.80;;;;;;4916538;29;20699;-75
2021/04/14 09:45:57;;;;;;;1.20;1.20;;;8.00;92.90;;;;;;4916069;29;20230;-75
2021/04/14 09:48:24;;;;;;;1.00;1.00;;;8.00;93.50;;;;;;4916431;29;20202;-75
2021/04/14 09:50:52;;;;;;;1.00;1.00;;;8.00;94.30;;;;;;4916318;29;20621;-75
2021/04/14 09:53:25;;;;;;;0.90;0.90;;;8.00;95.20;;;;;;4916316;29;20296;-76
2021/04/14 09:55:56;;;;;;;1.13;1.13;;;7.90;95.90;;;;;;4915995;29;20230;-76
2021/04/14 09:58:28;;;;;;;1.17;1.17;;;7.80;96.20;;;;;;4916487;29;20297;-76
2021/04/14 10:00:58;;;;;;;1.13;1.13;;;7.70;96.70;;;;;;4916256;29;20262;-75
2021/04/14 10:03:30;;;;;;;1.00;1.00;;;7.60;97.20;;;;;;4916310;29;20222;-75
2021/04/14 10:06:05;;;;;;;1.30;1.30;;;7.70;95.60;;;;;;4915844;29;20702;-76
2021/04/14 10:08:34;;;;;;;1.10;1.10;;;7.90;96.50;;;;;;4915601;29;20288;-76
2021/04/14 10:11:01;;;;;;;1.17;1.17;;;;;;;;;;4916126;29;20206;-76
2021/04/14 10:13:32;;;;;;;1.10;1.10;;;7.80;99.90;;;;;;4916069;29;20289;-75
2021/04/14 10:16:00;;;;;;;0.90;0.90;;;7.90;93.10;;;;;;4915798;29;20210;-76
2021/04/14 10:18:30;;;;;;;1.07;1.07;;;7.80;91.00;;;;;;4915868;29;20234;-76
2021/04/14 10:21:14;;;;;;;1.00;1.00;;;7.70;89.10;;;;;;4916072;29;20612;-76
2021/04/14 10:23:41;;;;;;;1.13;1.13;;;7.40;96.50;;;;;;4916032;29;20631;-75
2021/04/14 10:26:10;;;;;;;1.20;1.20;;;8.00;87.50;;;;;;4950586;23;20237;-77
2021/04/14 10:28:42;;;;;;;0.90;0.90;;;8.30;87.00;;;;;;4938375;29;20206;-78
2021/04/14 10:31:12;;;;;;;0.93;0.93;;;8.20;87.10;;;;;;4942140;29;20269;-79
2021/04/14 10:33:41;;;;;;;0.90;0.90;;;8.00;87.40;;;;;;4945196;29;20221;-78
2021/04/14 10:36:12;;;;;;;1.00;1.00;;;8.00;88.10;;;;;;4925789;29;20300;-78
2021/04/14 10:38:39;;;;;;;1.17;1.17;;;8.10;85.60;;;;;;4924093;29;20231;-79
2021/04/14 10:41:19;;;;;;;0.90;0.90;;;7.90;81.40;;;;;;4924871;29;20211;-79
2021/04/14 10:43:46;;;;;;;1.00;1.00;;;8.00;82.30;;;;;;4925264;29;20227;-78
2021/04/14 10:46:26;;;;;;;1.00;1.00;;;8.10;82.50;;;;;;4924048;29;20229;-78
2021/04/14 10:48:59;;;;;;;1.03;1.03;;;8.20;80.40;;;;;;4924423;29;20210;-78
2021/04/14 10:51:31;;;;;;;0.90;0.90;;;8.40;81.20;;;;;;4922209;29;20328;-78
2021/04/14 10:54:00;;;;;;;0.90;0.90;;;8.40;79.40;;;;;;4924970;29;20610;-79
2021/04/14 10:56:29;;;;;;;1.10;1.10;;;8.40;80.20;;;;;;4924146;29;20202;-79
2021/04/14 10:58:57;;;;;;;1.00;1.00;;;8.30;80.20;;;;;;4924345;29;20222;-79
2021/04/14 11:01:35;;;;;;;1.10;1.10;;;8.30;80.80;;;;;;4924437;29;20661;-79
2021/04/14 11:04:09;;;;;;;1.00;1.00;;;8.60;92.60;;;;;;4925120;29;20210;-79
2021/04/14 11:06:38;;;;;;;0.90;0.90;;;8.30;77.80;;;;;;4921810;29;20218;-78
2021/04/14 11:09:08;;;;;;;1.00;1.00;;;8.50;77.10;;;;;;4920588;29;20258;-78
2021/04/14 11:11:36;;;;;;;1.03;1.03;;;8.60;77.20;;;;;;4921246;29;20230;-78
2021/04/14 11:14:07;;;;;;;1.03;1.03;;;9.90;93.20;;;;;;4920004;29;20219;-77
2021/04/14 11:16:37;;;;;;;1.00;1.00;;;8.60;78.70;;;;;;4920582;29;20211;-77
2021/04/14 11:19:12;;;;;;;0.83;0.83;;;9.00;77.70;;;;;;4920784;29;20289;-79
2021/04/14 11:21:41;;;;;;;1.00;1.00;;;9.00;77.50;;;;;;4920511;29;20202;-78
2021/04/14 11:24:10;;;;;;;0.87;0.87;;;9.20;91.80;;;;;;4923812;29;20206;-78
2021/04/14 11:26:39;;;;;;;1.00;1.00;;;9.20;76.70;;;;;;4924019;29;20239;-78
2021/04/14 11:29:07;;;;;;;1.10;1.10;;;9.10;75.00;;;;;;4924445;29;20202;-78
2021/04/14 11:31:37;;;;;;;0.80;0.80;;;9.30;75.90;;;;;;4923790;29;20234;-79
2021/04/14 11:34:14;;;;;;;1.10;1.10;;;8.90;91.90;;;;;;4927845;29;20213;-79
2021/04/14 11:36:55;;;;;;;0.90;0.90;;;8.80;76.70;;;;;;4927815;29;20217;-79
2021/04/14 11:39:23;;;;;;;0.90;0.90;;;8.90;78.60;;;;;;4926948;29;20265;-78
2021/04/14 11:42:04;;;;;;;1.00;1.00;;;8.90;75.10;;;;;;4926607;29;20202;-79
2021/04/14 11:44:41;;;;;;;1.00;1.00;;;8.90;75.70;;;;;;4926139;29;20231;-78
2021/04/14 11:47:19;;;;;;;0.97;0.97;;;9.10;73.20;;;;;;4926285;29;20202;-79
2021/04/14 11:49:46;;;;;;;1.10;1.10;;;9.10;72.80;;;;;;4927602;29;20234;-79
2021/04/14 11:52:19;;;;;;;0.90;0.90;;;9.20;74.30;;;;;;4927725;29;20723;-79
2021/04/14 11:54:46;;;;;;;1.00;1.00;;;;;;;;;;4926737;29;20231;-79
2021/04/14 11:57:21;;;;;;;1.07;1.07;;;9.20;75.60;;;;;;4927134;29;20215;-79
2021/04/14 11:59:50;;;;;;;1.07;1.07;;;9.40;75.60;;;;;;4926558;29;20214;-79
2021/04/14 12:02:21;;;;;;;1.10;1.10;;;9.30;75.90;;;;;;4927096;29;20210;-79
2021/04/14 12:04:57;;;;;;;0.90;0.90;;;9.50;75.00;;;;;;4927679;29;20250;-79
2021/04/14 12:07:25;;;;;;;1.00;1.00;;;9.70;75.50;;;;;;4928035;29;20270;-79
2021/04/14 12:09:52;;;;;;;0.80;0.80;;;9.60;76.90;;;;;;4927492;29;20203;-79
2021/04/14 12:12:19;;;;;;;1.10;1.10;;;9.70;75.70;;;;;;4926569;29;20747;-78
2021/04/14 12:14:46;;;;;;;0.90;0.90;;;9.70;76.30;;;;;;4923832;29;20218;-78
2021/04/14 12:17:14;;;;;;;0.82;0.82;;;9.90;72.10;;;;;;4924733;29;20214;-79
2021/04/14 12:19:42;;;;;;;1.20;1.20;;;9.80;74.30;;;;;;4926497;29;20207;-79
2021/04/14 12:22:09;;;;;;;0.90;0.90;;;9.60;73.40;;;;;;4927745;29;20210;-78
2021/04/14 12:24:37;;;;;;;0.80;0.80;;;9.40;73.90;;;;;;4926588;29;20297;-79
2021/04/14 12:27:20;;;;;;;1.00;1.00;;;9.30;75.50;;;;;;4921367;29;20203;-79
2021/04/14 12:29:47;;;;;;;0.90;0.90;;;9.10;76.20;;;;;;4920434;29;20206;-79
2021/04/14 12:32:14;;;;;;;1.03;1.03;;;;;;;;;;4928910;29;20226;-79
2021/04/14 12:34:41;;;;;;;0.97;0.97;;;8.80;76.40;;;;;;4927110;29;20227;-80
2021/04/14 12:37:12;;;;;;;0.90;0.90;;;8.70;79.40;;;;;;4927319;29;20237;-79
2021/04/14 12:39:40;;;;;;;1.00;1.00;;;8.30;81.10;;;;;;4929838;29;20210;-79
2021/04/14 12:42:23;;;;;;;1.00;1.00;;;8.20;81.30;;;;;;4919124;29;20203;-77
2021/04/14 12:44:51;;;;;;;1.00;1.00;;;8.40;80.90;;;;;;4917977;29;20314;-78
2021/04/14 12:47:22;;;;;;;1.00;1.00;;;8.50;79.00;;;;;;4920425;29;20210;-77
2021/04/14 12:49:50;;;;;;;0.90;0.90;;;8.70;79.50;;;;;;4920982;29;20217;-78
2021/04/14 12:52:25;;;;;;;1.00;1.00;;;9.10;78.10;;;;;;4921060;29;20205;-78
2021/04/14 12:54:56;;;;;;;1.00;1.00;;;9.30;78.00;;;;;;4922307;29;20229;-77
2021/04/14 12:57:26;;;;;;;0.80;0.80;;;9.30;75.60;;;;;;4923102;29;20210;-77
2021/04/14 12:59:56;;;;;;;0.90;0.90;;;9.40;76.60;;;;;;4923105;29;20221;-77
2021/04/14 13:02:25;;;;;;;0.90;0.90;;;9.40;75.60;;;;;;4921175;29;20289;-78
2021/04/14 13:04:56;;;;;;;0.90;0.90;;;9.30;76.00;;;;;;4919505;29;20230;-78
2021/04/14 13:07:28;;;;;;;0.90;0.90;;;9.20;77.50;;;;;;4914562;29;20238;-80
2021/04/14 13:09:57;;;;;;;1.00;1.00;;;9.40;76.70;;;;;;4918801;29;20210;-80
2021/04/14 13:12:28;;;;;;;1.10;1.10;;;9.70;74.00;;;;;;4919695;29;20218;-79
2021/04/14 13:14:55;;;;;;;1.00;1.00;;;9.70;70.00;;;;;;4920798;29;20223;-80
2021/04/14 13:17:25;;;;;;;0.93;0.93;;;9.30;71.20;;;;;;4922335;29;20211;-79
2021/04/14 13:19:53;;;;;;;0.90;0.90;;;9.10;73.50;;;;;;4921364;29;20199;-80
2021/04/14 13:22:34;;;;;;;1.07;1.07;;;9.10;74.30;;;;;;4921181;29;20222;-79
2021/04/14 13:25:11;;;;;;;0.90;0.90;;;9.40;72.50;;;;;;4914328;29;20226;-80
2021/04/14 13:27:47;;;;;;;0.90;0.90;;;9.30;72.10;;;;;;4918527;29;20611;-79
2021/04/14 13:30:22;;;;;;;0.90;0.90;;;9.40;71.30;;;;;;4921849;29;20214;-79
2021/04/14 13:32:55;;;;;;;0.90;0.90;;;9.60;72.80;;;;;;4920601;29;20206;-79
2021/04/14 13:35:25;;;;;;;0.90;0.90;;;9.80;71.80;;;;;;4919477;29;20223;-76
2021/04/14 13:38:02;;;;;;;1.00;1.00;;;9.60;71.20;;;;;;4918378;29;20286;-76
2021/04/14 13:40:41;;;;;;;0.90;0.90;;;9.70;72.20;;;;;;4916836;29;20210;-78
2021/04/14 13:43:15;;;;;;;0.90;0.90;;;9.70;73.30;;;;;;4920008;29;20563;-79
2021/04/14 13:45:50;;;;;;;0.83;0.83;;;9.90;72.50;;;;;;4919388;29;20240;-78
2021/04/14 13:48:23;;;;;;;0.80;0.80;;;10.10;68.80;;;;;;4917876;29;20691;-78
2021/04/14 13:50:56;;;;;;;0.90;0.90;;;10.30;67.60;;;;;;4918161;29;20226;-78
2021/04/14 13:53:29;;;;;;;0.80;0.80;;;10.10;68.90;;;;;;4917713;29;20256;-77
2021/04/14 13:56:01;;;;;;;0.90;0.90;;;9.90;67.50;;;;;;4899550;29;20647;-77
2021/04/14 13:58:41;;;;;;;0.90;0.90;;;9.70;68.40;;;;;;4908914;29;20517;-79
2021/04/14 14:01:11;;;;;;;0.95;0.95;;;9.50;68.70;;;;;;4920889;29;20258;-79
2021/04/14 14:03:38;;;;;;;0.97;0.97;;;9.70;68.00;;;;;;4917453;29;20694;-78
2021/04/14 14:06:11;;;;;;;1.00;1.00;;;9.60;69.00;;;;;;4916449;29;20230;-77
2021/04/14 14:08:46;;;;;;;0.90;0.90;;;9.50;69.30;;;;;;4916488;29;20207;-78
2021/04/14 14:11:20;;;;;;;1.00;1.00;;;9.30;70.60;;;;;;4916268;29;20206;-77
2021/04/14 14:13:52;;;;;;;0.90;0.90;;;9.10;71.10;;;;;;4916913;29;20212;-78
2021/04/14 14:16:22;;;;;;;0.90;0.90;;;9.30;71.60;;;;;;4917187;29;20270;-79
2021/04/14 14:19:01;;;;;;;0.90;0.90;;;9.60;71.30;;;;;;4920432;29;20703;-80
2021/04/14 14:21:39;;;;;;;0.93;0.93;;;9.70;70.40;;;;;;4920141;29;20225;-79
2021/04/14 14:24:06;;;;;;;0.80;0.80;;;9.50;89.00;;;;;;4919815;29;20254;-79
2021/04/14 14:26:35;;;;;;;0.90;0.90;;;9.60;72.10;;;;;;4918801;29;20247;-78
2021/04/14 14:29:04;;;;;;;0.90;0.90;;;9.60;70.90;;;;;;4918883;29;20277;-80
2021/04/14 14:31:33;;;;;;;0.80;0.80;;;9.60;70.50;;;;;;4918594;29;20215;-81
2021/04/14 14:34:01;;;;;;;0.80;0.80;;;10.10;85.30;;;;;;4919288;29;20231;-78
2021/04/14 14:36:33;;;;;;;0.80;0.80;;;10.10;68.20;;;;;;4919931;29;20203;-78
2021/04/14 14:39:13;;;;;;;0.85;0.85;;;10.10;67.90;;;;;;4921206;29;20219;-79
2021/04/14 14:41:44;;;;;;;0.85;0.85;;;10.40;66.50;;;;;;4917577;29;20262;-78
2021/04/14 14:44:17;;;;;;;0.80;0.80;;;10.30;81.80;;;;;;4918174;29;20595;-79
2021/04/14 14:46:45;;;;;;;0.80;0.80;;;10.60;63.80;;;;;;4922666;29;20576;-79
2021/04/14 14:49:16;;;;;;;0.80;0.80;;;10.40;63.40;;;;;;4921616;29;20282;-79
2021/04/14 14:51:44;;;;;;;0.85;0.85;;;10.30;64.00;;;;;;4924428;29;21328;-78
2021/04/14 14:54:13;;;;;;;0.80;0.80;;;10.10;82.90;;;;;;4924349;29;20620;-79
2021/04/14 14:56:54;;;;;;;0.90;0.90;;;10.30;66.50;;;;;;4922052;29;20228;-79
2021/04/14 14:59:29;;;;;;;0.90;0.90;;;10.10;64.70;;;;;;4917566;29;20282;-78
2021/04/14 15:02:00;;;;;;;0.85;0.85;;;10.00;63.50;;;;;;4915899;29;20202;-77
2021/04/14 15:04:27;;;;;;;0.95;0.95;;;9.80;67.00;;;;;;4916894;29;20732;-78
2021/04/14 15:06:56;;;;;;;0.90;0.90;;;9.50;68.60;;;;;;4918842;29;20222;-78
2021/04/14 15:09:24;;;;;;;0.80;0.80;;;9.50;71.20;;;;;;4920112;29;20203;-78
2021/04/14 15:11:52;;;;;;;0.90;0.90;;;9.50;71.60;;;;;;4919390;29;20199;-78
2021/04/14 15:14:20;;;;;;;0.95;0.95;;;9.50;70.10;;;;;;4918073;29;20218;-78
2021/04/14 15:16:47;;;;;;;0.90;0.90;;;9.70;70.20;;;;;;4918736;29;20570;-78
2021/04/14 15:19:16;;;;;;;0.93;0.93;;;9.80;71.10;;;;;;4919535;29;20715;-78
2021/04/14 15:21:44;;;;;;;0.70;0.70;;;10.00;69.90;;;;;;4919724;29;20207;-78
2021/04/14 15:24:12;;;;;;;0.80;0.80;;;10.10;87.30;;;;;;4917457;29;20227;-78
2021/04/14 15:26:39;;;;;;;0.98;0.98;;;9.90;71.10;;;;;;4919622;29;20195;-80
2021/04/14 15:29:07;;;;;;;0.90;0.90;;;9.60;71.20;;;;;;4918458;29;20448;-78
2021/04/14 15:31:34;;;;;;;0.80;0.80;;;9.30;73.50;;;;;;4915086;29;20685;-78
2021/04/14 15:34:03;;;;;;;0.80;0.80;;;9.30;89.80;;;;;;4914757;29;20211;-77
2021/04/14 15:36:35;;;;;;;0.93;0.93;;;9.20;72.70;;;;;;4914668;29;20225;-77
2021/04/14 15:39:04;;;;;;;0.90;0.90;;;9.40;72.20;;;;;;4915109;29;20755;-78
2021/04/14 15:41:31;;;;;;;0.90;0.90;;;9.30;72.10;;;;;;4915674;29;20199;-80
2021/04/14 15:43:58;;;;;;;0.80;0.80;;;9.20;89.70;;;;;;4916332;29;20630;-78
2021/04/14 15:46:27;;;;;;;0.80;0.80;;;9.30;72.80;;;;;;4916057;29;20205;-78
2021/04/14 15:48:57;;;;;;;0.90;0.90;;;9.40;70.00;;;;;;4915906;29;20258;-78
2021/04/14 15:51:24;;;;;;;0.85;0.85;;;9.50;69.40;;;;;;4916841;29;20566;-79
2021/04/14 15:53:52;;;;;;;0.90;0.90;;;9.40;68.30;;;;;;4916202;29;20206;-79
2021/04/14 15:56:19;;;;;;;0.90;0.90;;;9.50;69.00;;;;;;4916659;29;20231;-78
2021/04/14 15:58:46;;;;;;;0.90;0.90;;;9.40;64.50;;;;;;4916268;29;20748;-80
2021/04/14 16:01:22;;;;;;;0.90;0.90;;;9.40;63.60;;;;;;4917339;29;20202;-78
2021/04/14 16:03:52;;;;;;;0.90;0.90;;;9.30;62.80;;;;;;4916856;29;20199;-79
2021/04/14 16:06:19;;;;;;;0.90;0.90;;;9.30;62.80;;;;;;4920203;29;20227;-78
2021/04/14 16:08:46;;;;;;;0.80;0.80;;;9.50;62.40;;;;;;4920249;29;20199;-80
2021/04/14 16:11:13;;;;;;;1.00;1.00;;;9.60;63.20;;;;;;4921230;29;20775;-78
2021/04/14 16:13:40;;;;;;;0.90;0.90;;;9.70;62.10;;;;;;4919816;29;20214;-79
2021/04/14 16:16:07;;;;;;;0.80;0.80;;;9.80;62.70;;;;;;4918950;29;20274;-76
2021/04/14 16:18:34;;;;;;;0.80;0.80;;;10.00;62.80;;;;;;4918222;29;20273;-77
2021/04/14 16:21:04;;;;;;;0.88;0.88;;;9.80;62.60;;;;;;4919323;29;20250;-76
2021/04/14 16:23:32;;;;;;;0.80;0.80;;;9.90;63.40;;;;;;4918698;29;20206;-76
2021/04/14 16:26:00;;;;;;;0.85;0.85;;;10.10;63.50;;;;;;4911552;29;20230;-77
2021/04/14 16:28:27;;;;;;;0.90;0.90;;;10.20;64.10;;;;;;4918808;29;20198;-80
2021/04/14 16:30:56;;;;;;;0.80;0.80;;;10.40;62.70;;;;;;4920340;29;20635;-78
2021/04/14 16:33:24;;;;;;;0.90;0.90;;;10.60;62.70;;;;;;4923584;29;20207;-81
2021/04/14 16:35:51;;;;;;;0.80;0.80;;;10.50;63.70;;;;;;4920382;29;20227;-80
2021/04/14 16:38:20;;;;;;;0.80;0.80;;;10.80;63.40;;;;;;4921398;29;20286;-79
2021/04/14 16:40:50;;;;;;;0.82;0.82;;;11.00;62.90;;;;;;4921722;29;20199;-80
2021/04/14 16:43:17;;;;;;;0.70;0.70;;;10.90;61.40;;;;;;4922046;29;20206;-80
2021/04/14 16:45:45;;;;;;;0.80;0.80;;;11.10;62.40;;;;;;4920200;29;20231;-79
2021/04/14 16:48:13;;;;;;;0.82;0.82;;;10.90;60.30;;;;;;4921406;29;20736;-80
2021/04/14 16:50:41;;;;;;;0.80;0.80;;;10.60;61.80;;;;;;4921789;29;20210;-78
2021/04/14 16:53:09;;;;;;;0.90;0.90;;;10.40;61.80;;;;;;4923401;29;20203;-79
2021/04/14 16:55:37;;;;;;;0.90;0.90;;;10.40;62.90;;;;;;4922138;29;20219;-80
2021/04/14 16:58:06;;;;;;;0.80;0.80;;;10.40;61.60;;;;;;4924826;29;20207;-79
2021/04/14 17:00:34;;;;;;;0.70;0.70;;;10.50;61.80;;;;;;4923784;29;20202;-79
2021/04/14 17:03:03;;;;;;;1.00;1.00;;;10.70;63.70;;;;;;4923593;29;20194;-79
2021/04/14 17:05:31;;;;;;;0.80;0.80;;;10.50;66.40;;;;;;4923283;29;20246;-79
2021/04/14 17:07:59;;;;;;;0.70;0.70;;;10.40;67.90;;;;;;4920981;29;20223;-78
2021/04/14 17:10:29;;;;;;;0.80;0.80;;;10.30;68.30;;;;;;4922902;29;20209;-78
2021/04/14 17:12:59;;;;;;;0.80;0.80;;;10.50;68.40;;;;;;4921729;29;20688;-78
2021/04/14 17:15:27;;;;;;;0.80;0.80;;;10.70;67.70;;;;;;4922173;29;20226;-81
2021/04/14 17:17:54;;;;;;;0.80;0.80;;;10.60;68.90;;;;;;4921404;29;20726;-78
2021/04/14 17:20:22;;;;;;;0.75;0.75;;;10.40;70.30;;;;;;4922937;29;20620;-77
2021/04/14 17:22:49;;;;;;;0.73;0.73;;;10.30;70.90;;;;;;4907426;29;20269;-77
2021/04/14 17:25:16;;;;;;;0.80;0.80;;;10.00;72.40;;;;;;4911340;29;20235;-78
2021/04/14 17:27:43;;;;;;;0.80;0.80;;;9.50;74.50;;;;;;4920331;29;20211;-78
2021/04/14 17:30:17;;;;;;;0.80;0.80;;;9.20;75.50;;;;;;4922620;29;20203;-78